sensor_id;sensor_type;location;lat;lon;timestamp;P1;durP1;ratioP1;P2;durP2;ratioP2
35644;SDS011;21764;52.042;6.830;2023-04-09T00:02:28;58.15;;;30.42;;
35644;SDS011;21764;52.042;6.830;2023-04-09T00:07:28;57.30;;;31.67;;
35644;SDS011;21764;52.042;6.830;2023-04-09T00:12:29;60.15;;;31.02;;
35644;SDS011;21764;52.042;6.830;2023-04-09T00:17:30;57.28;;;31.80;;
35644;SDS011;21764;52.042;6.830;2023-04-09T00:22:30;60.72;;;31.90;;
35644;SDS011;21764;52.042;6.830;2023-04-09T00:27:31;54.20;;;31.92;;
35644;SDS011;21764;52.042;6.830;2023-04-09T00:32:32;61.80;;;32.33;;
35644;SDS011;21764;52.042;6.830;2023-04-09T00:37:32;52.72;;;28.33;;
35644;SDS011;21764;52.042;6.830;2023-04-09T00:42:33;54.30;;;26.48;;
35644;SDS011;21764;52.042;6.830;2023-04-09T00:47:35;59.95;;;33.28;;
35644;SDS011;21764;52.042;6.830;2023-04-09T00:52:36;65.20;;;35.88;;
35644;SDS011;21764;52.042;6.830;2023-04-09T00:57:37;56.03;;;29.67;;
35644;SDS011;21764;52.042;6.830;2023-04-09T01:02:37;60.40;;;32.97;;
35644;SDS011;21764;52.042;6.830;2023-04-09T01:07:53;72.65;;;33.13;;
35644;SDS011;21764;52.042;6.830;2023-04-09T01:13:12;60.42;;;31.75;;
35644;SDS011;21764;52.042;6.830;2023-04-09T01:18:28;57.30;;;30.25;;
35644;SDS011;21764;52.042;6.830;2023-04-09T01:23:46;57.92;;;32.45;;
35644;SDS011;21764;52.042;6.830;2023-04-09T01:28:48;58.72;;;32.67;;
35644;SDS011;21764;52.042;6.830;2023-04-09T01:33:55;57.63;;;33.60;;
35644;SDS011;21764;52.042;6.830;2023-04-09T01:38:56;56.47;;;31.92;;
35644;SDS011;21764;52.042;6.830;2023-04-09T01:44:02;62.30;;;36.30;;
35644;SDS011;21764;52.042;6.830;2023-04-09T01:49:04;68.50;;;35.83;;
35644;SDS011;21764;52.042;6.830;2023-04-09T01:54:05;61.70;;;33.97;;
35644;SDS011;21764;52.042;6.830;2023-04-09T01:59:06;66.30;;;36.20;;
35644;SDS011;21764;52.042;6.830;2023-04-09T02:04:12;68.00;;;36.80;;
35644;SDS011;21764;52.042;6.830;2023-04-09T02:09:20;69.40;;;36.38;;
35644;SDS011;21764;52.042;6.830;2023-04-09T02:14:23;67.93;;;36.17;;
35644;SDS011;21764;52.042;6.830;2023-04-09T02:19:42;70.60;;;37.00;;
35644;SDS011;21764;52.042;6.830;2023-04-09T02:24:45;73.47;;;37.05;;
35644;SDS011;21764;52.042;6.830;2023-04-09T02:29:45;72.97;;;39.20;;
35644;SDS011;21764;52.042;6.830;2023-04-09T02:34:46;75.35;;;39.03;;
35644;SDS011;21764;52.042;6.830;2023-04-09T02:39:47;76.95;;;40.60;;
35644;SDS011;21764;52.042;6.830;2023-04-09T02:44:47;77.90;;;39.13;;
35644;SDS011;21764;52.042;6.830;2023-04-09T02:49:48;74.55;;;39.22;;
35644;SDS011;21764;52.042;6.830;2023-04-09T02:54:49;80.00;;;39.72;;
35644;SDS011;21764;52.042;6.830;2023-04-09T02:59:50;77.45;;;39.95;;
35644;SDS011;21764;52.042;6.830;2023-04-09T03:04:50;77.47;;;39.42;;
35644;SDS011;21764;52.042;6.830;2023-04-09T03:09:52;78.32;;;39.35;;
35644;SDS011;21764;52.042;6.830;2023-04-09T03:14:52;78.85;;;39.85;;
35644;SDS011;21764;52.042;6.830;2023-04-09T03:19:54;83.55;;;40.88;;
35644;SDS011;21764;52.042;6.830;2023-04-09T03:24:54;84.95;;;39.90;;
35644;SDS011;21764;52.042;6.830;2023-04-09T03:29:55;78.93;;;40.22;;
35644;SDS011;21764;52.042;6.830;2023-04-09T03:34:56;73.80;;;39.08;;
35644;SDS011;21764;52.042;6.830;2023-04-09T03:39:56;80.60;;;37.83;;
35644;SDS011;21764;52.042;6.830;2023-04-09T03:44:57;83.22;;;39.85;;
35644;SDS011;21764;52.042;6.830;2023-04-09T03:49:58;79.53;;;38.45;;
35644;SDS011;21764;52.042;6.830;2023-04-09T03:54:58;83.68;;;40.25;;
35644;SDS011;21764;52.042;6.830;2023-04-09T03:59:59;86.68;;;40.65;;
35644;SDS011;21764;52.042;6.830;2023-04-09T04:05:00;84.18;;;40.15;;
35644;SDS011;21764;52.042;6.830;2023-04-09T04:10:02;90.10;;;40.70;;
35644;SDS011;21764;52.042;6.830;2023-04-09T04:15:04;92.63;;;40.30;;
35644;SDS011;21764;52.042;6.830;2023-04-09T04:20:05;86.18;;;41.75;;
35644;SDS011;21764;52.042;6.830;2023-04-09T04:25:06;86.97;;;41.13;;
35644;SDS011;21764;52.042;6.830;2023-04-09T04:30:07;93.90;;;43.15;;
35644;SDS011;21764;52.042;6.830;2023-04-09T04:35:08;97.25;;;43.60;;
35644;SDS011;21764;52.042;6.830;2023-04-09T04:40:09;90.30;;;42.85;;
35644;SDS011;21764;52.042;6.830;2023-04-09T04:45:10;99.93;;;43.30;;
35644;SDS011;21764;52.042;6.830;2023-04-09T04:50:10;107.05;;;44.25;;
35644;SDS011;21764;52.042;6.830;2023-04-09T04:55:11;94.40;;;43.28;;
35644;SDS011;21764;52.042;6.830;2023-04-09T05:00:12;104.40;;;46.33;;
35644;SDS011;21764;52.042;6.830;2023-04-09T05:05:13;99.82;;;43.45;;
35644;SDS011;21764;52.042;6.830;2023-04-09T05:10:13;109.03;;;47.88;;
35644;SDS011;21764;52.042;6.830;2023-04-09T05:15:14;97.57;;;43.75;;
35644;SDS011;21764;52.042;6.830;2023-04-09T05:20:15;90.53;;;43.92;;
35644;SDS011;21764;52.042;6.830;2023-04-09T05:25:16;91.80;;;44.65;;
35644;SDS011;21764;52.042;6.830;2023-04-09T05:30:16;80.68;;;39.72;;
35644;SDS011;21764;52.042;6.830;2023-04-09T05:35:17;77.85;;;38.95;;
35644;SDS011;21764;52.042;6.830;2023-04-09T05:40:18;68.05;;;36.03;;
35644;SDS011;21764;52.042;6.830;2023-04-09T05:45:18;66.18;;;36.72;;
35644;SDS011;21764;52.042;6.830;2023-04-09T05:50:19;63.35;;;36.13;;
35644;SDS011;21764;52.042;6.830;2023-04-09T05:55:20;67.10;;;36.17;;
35644;SDS011;21764;52.042;6.830;2023-04-09T06:00:20;59.47;;;33.97;;
35644;SDS011;21764;52.042;6.830;2023-04-09T06:05:21;56.42;;;33.83;;
35644;SDS011;21764;52.042;6.830;2023-04-09T06:10:22;61.22;;;34.28;;
35644;SDS011;21764;52.042;6.830;2023-04-09T06:15:23;62.45;;;34.88;;
35644;SDS011;21764;52.042;6.830;2023-04-09T06:20:24;60.15;;;33.65;;
35644;SDS011;21764;52.042;6.830;2023-04-09T06:25:24;55.95;;;33.60;;
35644;SDS011;21764;52.042;6.830;2023-04-09T06:30:25;63.70;;;36.00;;
35644;SDS011;21764;52.042;6.830;2023-04-09T06:35:26;57.60;;;35.70;;
35644;SDS011;21764;52.042;6.830;2023-04-09T06:40:26;54.20;;;33.88;;
35644;SDS011;21764;52.042;6.830;2023-04-09T06:45:27;61.65;;;35.17;;
35644;SDS011;21764;52.042;6.830;2023-04-09T06:50:28;57.08;;;35.65;;
35644;SDS011;21764;52.042;6.830;2023-04-09T06:55:29;56.15;;;34.13;;
35644;SDS011;21764;52.042;6.830;2023-04-09T07:00:30;58.65;;;36.30;;
35644;SDS011;21764;52.042;6.830;2023-04-09T07:05:30;54.45;;;34.92;;
35644;SDS011;21764;52.042;6.830;2023-04-09T07:10:32;60.63;;;37.53;;
35644;SDS011;21764;52.042;6.830;2023-04-09T07:15:32;58.25;;;37.45;;
35644;SDS011;21764;52.042;6.830;2023-04-09T07:20:33;57.30;;;33.65;;
35644;SDS011;21764;52.042;6.830;2023-04-09T07:25:34;55.60;;;35.10;;
35644;SDS011;21764;52.042;6.830;2023-04-09T07:30:35;51.50;;;32.83;;
35644;SDS011;21764;52.042;6.830;2023-04-09T07:35:36;48.45;;;33.60;;
35644;SDS011;21764;52.042;6.830;2023-04-09T07:40:37;51.33;;;33.42;;
35644;SDS011;21764;52.042;6.830;2023-04-09T07:45:37;52.03;;;33.55;;
35644;SDS011;21764;52.042;6.830;2023-04-09T07:50:38;49.25;;;32.03;;
35644;SDS011;21764;52.042;6.830;2023-04-09T07:55:39;45.88;;;29.52;;
35644;SDS011;21764;52.042;6.830;2023-04-09T08:00:40;47.00;;;30.17;;
35644;SDS011;21764;52.042;6.830;2023-04-09T08:05:41;49.72;;;30.20;;
35644;SDS011;21764;52.042;6.830;2023-04-09T08:10:41;43.35;;;29.60;;
35644;SDS011;21764;52.042;6.830;2023-04-09T08:15:42;42.88;;;29.50;;
35644;SDS011;21764;52.042;6.830;2023-04-09T08:20:42;45.63;;;29.42;;
35644;SDS011;21764;52.042;6.830;2023-04-09T08:25:44;40.92;;;27.15;;
35644;SDS011;21764;52.042;6.830;2023-04-09T08:30:45;36.20;;;25.77;;
35644;SDS011;21764;52.042;6.830;2023-04-09T08:35:46;33.25;;;24.13;;
35644;SDS011;21764;52.042;6.830;2023-04-09T08:40:47;32.97;;;23.45;;
35644;SDS011;21764;52.042;6.830;2023-04-09T08:45:48;30.67;;;22.13;;
35644;SDS011;21764;52.042;6.830;2023-04-09T08:50:49;29.17;;;21.45;;
35644;SDS011;21764;52.042;6.830;2023-04-09T08:55:50;27.15;;;19.98;;
35644;SDS011;21764;52.042;6.830;2023-04-09T09:00:50;25.10;;;19.33;;
35644;SDS011;21764;52.042;6.830;2023-04-09T09:05:51;23.00;;;18.13;;
35644;SDS011;21764;52.042;6.830;2023-04-09T09:10:52;21.25;;;17.13;;
35644;SDS011;21764;52.042;6.830;2023-04-09T09:15:53;19.23;;;14.88;;
35644;SDS011;21764;52.042;6.830;2023-04-09T09:21:10;18.20;;;14.48;;
35644;SDS011;21764;52.042;6.830;2023-04-09T09:26:13;18.98;;;14.20;;
35644;SDS011;21764;52.042;6.830;2023-04-09T09:31:18;17.48;;;14.05;;
35644;SDS011;21764;52.042;6.830;2023-04-09T09:36:33;15.95;;;13.60;;
35644;SDS011;21764;52.042;6.830;2023-04-09T09:41:35;18.98;;;14.70;;
35644;SDS011;21764;52.042;6.830;2023-04-09T09:46:37;16.20;;;11.35;;
35644;SDS011;21764;52.042;6.830;2023-04-09T09:51:39;15.05;;;11.55;;
35644;SDS011;21764;52.042;6.830;2023-04-09T09:56:40;13.00;;;9.90;;
35644;SDS011;21764;52.042;6.830;2023-04-09T10:01:43;14.38;;;10.05;;
35644;SDS011;21764;52.042;6.830;2023-04-09T10:06:46;12.32;;;10.00;;
35644;SDS011;21764;52.042;6.830;2023-04-09T10:11:49;13.38;;;10.93;;
35644;SDS011;21764;52.042;6.830;2023-04-09T10:16:49;13.00;;;10.18;;
35644;SDS011;21764;52.042;6.830;2023-04-09T10:21:58;14.55;;;9.10;;
35644;SDS011;21764;52.042;6.830;2023-04-09T10:27:09;14.73;;;11.85;;
35644;SDS011;21764;52.042;6.830;2023-04-09T10:32:18;16.38;;;12.73;;
35644;SDS011;21764;52.042;6.830;2023-04-09T10:37:26;15.80;;;13.15;;
35644;SDS011;21764;52.042;6.830;2023-04-09T10:42:37;21.13;;;15.43;;
35644;SDS011;21764;52.042;6.830;2023-04-09T10:47:42;20.43;;;15.27;;
35644;SDS011;21764;52.042;6.830;2023-04-09T10:52:45;21.00;;;14.73;;
35644;SDS011;21764;52.042;6.830;2023-04-09T10:57:46;17.80;;;12.93;;
35644;SDS011;21764;52.042;6.830;2023-04-09T11:08:07;18.73;;;12.38;;
35644;SDS011;21764;52.042;6.830;2023-04-09T11:13:10;20.88;;;13.20;;
35644;SDS011;21764;52.042;6.830;2023-04-09T11:18:18;17.70;;;11.95;;
35644;SDS011;21764;52.042;6.830;2023-04-09T11:23:21;17.95;;;13.13;;
35644;SDS011;21764;52.042;6.830;2023-04-09T11:28:23;21.67;;;14.13;;
35644;SDS011;21764;52.042;6.830;2023-04-09T11:33:31;23.45;;;11.38;;
35644;SDS011;21764;52.042;6.830;2023-04-09T11:38:33;17.02;;;11.68;;
35644;SDS011;21764;52.042;6.830;2023-04-09T11:43:35;21.55;;;11.68;;
35644;SDS011;21764;52.042;6.830;2023-04-09T11:48:36;19.65;;;12.35;;
35644;SDS011;21764;52.042;6.830;2023-04-09T11:53:37;24.08;;;12.77;;
35644;SDS011;21764;52.042;6.830;2023-04-09T11:58:37;19.23;;;13.20;;
35644;SDS011;21764;52.042;6.830;2023-04-09T12:03:44;15.38;;;9.07;;
35644;SDS011;21764;52.042;6.830;2023-04-09T12:08:54;18.23;;;13.05;;
35644;SDS011;21764;52.042;6.830;2023-04-09T12:14:03;19.83;;;12.68;;
35644;SDS011;21764;52.042;6.830;2023-04-09T12:19:05;18.05;;;11.85;;
35644;SDS011;21764;52.042;6.830;2023-04-09T12:24:06;20.02;;;12.73;;
35644;SDS011;21764;52.042;6.830;2023-04-09T12:29:07;15.90;;;11.48;;
35644;SDS011;21764;52.042;6.830;2023-04-09T12:34:08;19.55;;;11.63;;
35644;SDS011;21764;52.042;6.830;2023-04-09T12:39:09;17.63;;;11.02;;
35644;SDS011;21764;52.042;6.830;2023-04-09T12:44:09;16.63;;;10.20;;
35644;SDS011;21764;52.042;6.830;2023-04-09T12:49:10;16.80;;;11.70;;
35644;SDS011;21764;52.042;6.830;2023-04-09T12:54:11;15.93;;;11.35;;
35644;SDS011;21764;52.042;6.830;2023-04-09T12:59:11;16.80;;;11.05;;
35644;SDS011;21764;52.042;6.830;2023-04-09T13:04:12;19.77;;;12.77;;
35644;SDS011;21764;52.042;6.830;2023-04-09T13:09:13;16.20;;;9.57;;
35644;SDS011;21764;52.042;6.830;2023-04-09T13:14:13;25.50;;;13.50;;
35644;SDS011;21764;52.042;6.830;2023-04-09T13:19:14;18.80;;;11.88;;
35644;SDS011;21764;52.042;6.830;2023-04-09T13:24:15;17.75;;;11.57;;
35644;SDS011;21764;52.042;6.830;2023-04-09T13:29:16;16.95;;;11.05;;
35644;SDS011;21764;52.042;6.830;2023-04-09T13:34:16;17.48;;;12.32;;
35644;SDS011;21764;52.042;6.830;2023-04-09T13:39:17;17.25;;;12.55;;
35644;SDS011;21764;52.042;6.830;2023-04-09T13:44:18;17.98;;;11.07;;
35644;SDS011;21764;52.042;6.830;2023-04-09T13:49:18;14.75;;;9.15;;
35644;SDS011;21764;52.042;6.830;2023-04-09T13:54:20;16.58;;;10.68;;
35644;SDS011;21764;52.042;6.830;2023-04-09T13:59:20;16.30;;;9.18;;
35644;SDS011;21764;52.042;6.830;2023-04-09T14:04:21;18.23;;;11.68;;
35644;SDS011;21764;52.042;6.830;2023-04-09T14:09:22;19.40;;;12.18;;
35644;SDS011;21764;52.042;6.830;2023-04-09T14:14:23;15.40;;;9.32;;
35644;SDS011;21764;52.042;6.830;2023-04-09T14:19:23;16.50;;;11.23;;
35644;SDS011;21764;52.042;6.830;2023-04-09T14:24:24;14.93;;;10.88;;
35644;SDS011;21764;52.042;6.830;2023-04-09T14:29:25;15.27;;;10.95;;
35644;SDS011;21764;52.042;6.830;2023-04-09T14:34:28;11.63;;;6.90;;
35644;SDS011;21764;52.042;6.830;2023-04-09T14:39:29;19.08;;;11.82;;
35644;SDS011;21764;52.042;6.830;2023-04-09T14:44:30;16.98;;;10.52;;
35644;SDS011;21764;52.042;6.830;2023-04-09T14:49:30;16.05;;;10.63;;
35644;SDS011;21764;52.042;6.830;2023-04-09T14:54:31;18.20;;;11.85;;
35644;SDS011;21764;52.042;6.830;2023-04-09T14:59:33;14.75;;;11.02;;
35644;SDS011;21764;52.042;6.830;2023-04-09T15:04:34;16.80;;;10.63;;
35644;SDS011;21764;52.042;6.830;2023-04-09T15:09:35;15.30;;;10.18;;
35644;SDS011;21764;52.042;6.830;2023-04-09T15:14:36;16.27;;;11.25;;
35644;SDS011;21764;52.042;6.830;2023-04-09T15:19:36;11.98;;;8.23;;
35644;SDS011;21764;52.042;6.830;2023-04-09T15:24:37;14.52;;;8.27;;
35644;SDS011;21764;52.042;6.830;2023-04-09T15:29:38;20.05;;;10.32;;
35644;SDS011;21764;52.042;6.830;2023-04-09T15:34:38;13.52;;;8.85;;
35644;SDS011;21764;52.042;6.830;2023-04-09T15:39:39;16.60;;;11.43;;
35644;SDS011;21764;52.042;6.830;2023-04-09T15:44:40;16.92;;;11.50;;
35644;SDS011;21764;52.042;6.830;2023-04-09T15:49:40;17.00;;;11.32;;
35644;SDS011;21764;52.042;6.830;2023-04-09T15:54:41;17.55;;;11.35;;
35644;SDS011;21764;52.042;6.830;2023-04-09T15:59:42;16.25;;;10.75;;
35644;SDS011;21764;52.042;6.830;2023-04-09T16:04:43;17.50;;;12.07;;
35644;SDS011;21764;52.042;6.830;2023-04-09T16:09:43;19.70;;;11.15;;
35644;SDS011;21764;52.042;6.830;2023-04-09T16:14:45;20.77;;;13.32;;
35644;SDS011;21764;52.042;6.830;2023-04-09T16:19:45;20.20;;;14.00;;
35644;SDS011;21764;52.042;6.830;2023-04-09T16:24:46;24.40;;;15.95;;
35644;SDS011;21764;52.042;6.830;2023-04-09T16:29:47;18.42;;;12.07;;
35644;SDS011;21764;52.042;6.830;2023-04-09T16:34:47;17.98;;;12.32;;
35644;SDS011;21764;52.042;6.830;2023-04-09T16:39:48;19.27;;;11.38;;
35644;SDS011;21764;52.042;6.830;2023-04-09T16:44:49;22.40;;;12.90;;
35644;SDS011;21764;52.042;6.830;2023-04-09T16:49:49;16.73;;;10.95;;
35644;SDS011;21764;52.042;6.830;2023-04-09T16:54:50;18.75;;;12.07;;
35644;SDS011;21764;52.042;6.830;2023-04-09T16:59:51;22.00;;;12.63;;
35644;SDS011;21764;52.042;6.830;2023-04-09T17:04:52;24.30;;;12.95;;
35644;SDS011;21764;52.042;6.830;2023-04-09T17:09:53;22.17;;;14.80;;
35644;SDS011;21764;52.042;6.830;2023-04-09T17:14:53;26.33;;;14.60;;
35644;SDS011;21764;52.042;6.830;2023-04-09T17:19:54;21.65;;;14.40;;
35644;SDS011;21764;52.042;6.830;2023-04-09T17:24:57;23.67;;;14.30;;
35644;SDS011;21764;52.042;6.830;2023-04-09T17:29:57;21.90;;;13.43;;
35644;SDS011;21764;52.042;6.830;2023-04-09T17:34:58;26.10;;;16.52;;
35644;SDS011;21764;52.042;6.830;2023-04-09T17:39:59;29.95;;;16.88;;
35644;SDS011;21764;52.042;6.830;2023-04-09T17:45:00;25.90;;;15.52;;
35644;SDS011;21764;52.042;6.830;2023-04-09T17:50:01;31.10;;;18.42;;
35644;SDS011;21764;52.042;6.830;2023-04-09T17:55:05;33.47;;;18.00;;
35644;SDS011;21764;52.042;6.830;2023-04-09T18:00:13;34.83;;;21.85;;
35644;SDS011;21764;52.042;6.830;2023-04-09T18:05:13;41.25;;;23.65;;
35644;SDS011;21764;52.042;6.830;2023-04-09T18:10:14;39.97;;;23.63;;
35644;SDS011;21764;52.042;6.830;2023-04-09T18:15:15;43.45;;;25.30;;
35644;SDS011;21764;52.042;6.830;2023-04-09T18:20:17;55.17;;;32.08;;
35644;SDS011;21764;52.042;6.830;2023-04-09T18:25:18;44.83;;;26.58;;
35644;SDS011;21764;52.042;6.830;2023-04-09T18:30:21;47.67;;;25.75;;
35644;SDS011;21764;52.042;6.830;2023-04-09T18:35:21;56.72;;;29.05;;
35644;SDS011;21764;52.042;6.830;2023-04-09T18:40:22;63.97;;;32.42;;
35644;SDS011;21764;52.042;6.830;2023-04-09T18:45:23;67.45;;;35.22;;
35644;SDS011;21764;52.042;6.830;2023-04-09T18:50:23;95.07;;;46.13;;
35644;SDS011;21764;52.042;6.830;2023-04-09T18:55:24;73.50;;;39.08;;
35644;SDS011;21764;52.042;6.830;2023-04-09T19:00:26;73.97;;;37.95;;
35644;SDS011;21764;52.042;6.830;2023-04-09T19:05:28;66.70;;;34.33;;
35644;SDS011;21764;52.042;6.830;2023-04-09T19:10:29;57.92;;;30.23;;
35644;SDS011;21764;52.042;6.830;2023-04-09T19:15:31;48.92;;;25.92;;
35644;SDS011;21764;52.042;6.830;2023-04-09T19:20:31;52.10;;;27.73;;
35644;SDS011;21764;52.042;6.830;2023-04-09T19:25:32;50.42;;;28.17;;
35644;SDS011;21764;52.042;6.830;2023-04-09T19:30:33;52.45;;;29.60;;
35644;SDS011;21764;52.042;6.830;2023-04-09T19:35:33;54.72;;;30.70;;
35644;SDS011;21764;52.042;6.830;2023-04-09T19:40:39;53.15;;;31.80;;
35644;SDS011;21764;52.042;6.830;2023-04-09T19:45:40;57.20;;;31.92;;
35644;SDS011;21764;52.042;6.830;2023-04-09T19:50:41;58.03;;;31.40;;
35644;SDS011;21764;52.042;6.830;2023-04-09T19:55:42;64.18;;;34.80;;
35644;SDS011;21764;52.042;6.830;2023-04-09T20:00:43;64.25;;;37.35;;
35644;SDS011;21764;52.042;6.830;2023-04-09T20:05:45;80.18;;;42.67;;
35644;SDS011;21764;52.042;6.830;2023-04-09T20:10:46;73.45;;;39.88;;
35644;SDS011;21764;52.042;6.830;2023-04-09T20:15:47;85.45;;;45.15;;
35644;SDS011;21764;52.042;6.830;2023-04-09T20:20:48;77.90;;;40.10;;
35644;SDS011;21764;52.042;6.830;2023-04-09T20:25:53;75.40;;;44.05;;
35644;SDS011;21764;52.042;6.830;2023-04-09T20:30:54;79.05;;;42.47;;
35644;SDS011;21764;52.042;6.830;2023-04-09T20:35:54;88.65;;;47.75;;
35644;SDS011;21764;52.042;6.830;2023-04-09T20:40:56;79.22;;;45.38;;
35644;SDS011;21764;52.042;6.830;2023-04-09T20:45:56;79.25;;;45.70;;
35644;SDS011;21764;52.042;6.830;2023-04-09T20:50:57;85.25;;;46.20;;
35644;SDS011;21764;52.042;6.830;2023-04-09T20:55:59;83.75;;;47.47;;
35644;SDS011;21764;52.042;6.830;2023-04-09T21:01:01;91.63;;;46.47;;
35644;SDS011;21764;52.042;6.830;2023-04-09T21:06:04;87.13;;;49.63;;
35644;SDS011;21764;52.042;6.830;2023-04-09T21:11:05;90.10;;;50.92;;
35644;SDS011;21764;52.042;6.830;2023-04-09T21:16:07;91.07;;;49.65;;
35644;SDS011;21764;52.042;6.830;2023-04-09T21:21:08;97.70;;;51.13;;
35644;SDS011;21764;52.042;6.830;2023-04-09T21:26:09;107.90;;;57.03;;
35644;SDS011;21764;52.042;6.830;2023-04-09T21:31:10;105.45;;;54.78;;
35644;SDS011;21764;52.042;6.830;2023-04-09T21:36:11;112.20;;;62.05;;
35644;SDS011;21764;52.042;6.830;2023-04-09T21:41:12;103.50;;;55.95;;
35644;SDS011;21764;52.042;6.830;2023-04-09T21:46:12;99.45;;;54.55;;
35644;SDS011;21764;52.042;6.830;2023-04-09T21:51:13;104.68;;;56.05;;
35644;SDS011;21764;52.042;6.830;2023-04-09T21:56:13;95.68;;;52.95;;
35644;SDS011;21764;52.042;6.830;2023-04-09T22:01:15;90.47;;;49.33;;
35644;SDS011;21764;52.042;6.830;2023-04-09T22:06:15;92.32;;;52.42;;
35644;SDS011;21764;52.042;6.830;2023-04-09T22:11:18;96.20;;;51.90;;
35644;SDS011;21764;52.042;6.830;2023-04-09T22:16:19;91.50;;;52.00;;
35644;SDS011;21764;52.042;6.830;2023-04-09T22:21:20;97.53;;;54.00;;
35644;SDS011;21764;52.042;6.830;2023-04-09T22:26:21;103.30;;;54.90;;
35644;SDS011;21764;52.042;6.830;2023-04-09T22:31:22;88.15;;;51.92;;
35644;SDS011;21764;52.042;6.830;2023-04-09T22:36:26;93.75;;;51.78;;
35644;SDS011;21764;52.042;6.830;2023-04-09T22:41:26;95.22;;;54.88;;
35644;SDS011;21764;52.042;6.830;2023-04-09T22:46:27;97.05;;;55.03;;
35644;SDS011;21764;52.042;6.830;2023-04-09T22:51:28;89.55;;;50.58;;
35644;SDS011;21764;52.042;6.830;2023-04-09T22:56:30;91.43;;;52.83;;
35644;SDS011;21764;52.042;6.830;2023-04-09T23:01:31;94.75;;;51.47;;
35644;SDS011;21764;52.042;6.830;2023-04-09T23:06:32;93.53;;;51.70;;
35644;SDS011;21764;52.042;6.830;2023-04-09T23:11:33;93.97;;;50.53;;
35644;SDS011;21764;52.042;6.830;2023-04-09T23:16:36;91.57;;;49.95;;
35644;SDS011;21764;52.042;6.830;2023-04-09T23:21:37;90.05;;;49.80;;
35644;SDS011;21764;52.042;6.830;2023-04-09T23:26:37;86.40;;;46.40;;
35644;SDS011;21764;52.042;6.830;2023-04-09T23:31:40;83.35;;;45.97;;
35644;SDS011;21764;52.042;6.830;2023-04-09T23:36:41;83.95;;;45.42;;
35644;SDS011;21764;52.042;6.830;2023-04-09T23:41:42;77.65;;;44.08;;
35644;SDS011;21764;52.042;6.830;2023-04-09T23:46:43;84.88;;;46.17;;
35644;SDS011;21764;52.042;6.830;2023-04-09T23:51:43;83.93;;;42.00;;
35644;SDS011;21764;52.042;6.830;2023-04-09T23:56:47;84.72;;;46.08;;
